createdAt,value
2019-05-18T00:03:29.448Z,100.00
2019-05-18T00:08:33.461Z,100.00
2019-05-18T00:13:37.832Z,100.00
2019-05-18T00:18:41.898Z,100.00
2019-05-18T00:23:45.893Z,100.00
2019-05-18T00:28:49.940Z,100.00
2019-05-18T00:33:54.013Z,100.00
2019-05-18T00:38:57.995Z,100.00
2019-05-18T00:44:02.023Z,100.00
2019-05-18T00:49:07.360Z,100.00
2019-05-18T00:54:11.401Z,100.00
2019-05-18T00:59:16.341Z,100.00
2019-05-18T01:04:20.860Z,100.00
2019-05-18T01:09:24.910Z,100.00
2019-05-18T01:14:29.089Z,100.00
2019-05-18T01:19:33.104Z,100.00
2019-05-18T01:24:37.165Z,100.00
2019-05-18T01:29:41.179Z,100.00
2019-05-18T01:34:45.555Z,100.00
2019-05-18T01:39:49.946Z,100.00
2019-05-18T01:44:53.971Z,100.00
2019-05-18T01:49:57.981Z,100.00
2019-05-18T01:55:02.027Z,100.00
2019-05-18T02:00:06.797Z,100.00
2019-05-18T02:05:11.925Z,100.00
2019-05-18T02:10:17.080Z,100.00
2019-05-18T02:15:21.219Z,100.00
2019-05-18T02:20:25.292Z,100.00
2019-05-18T02:25:29.328Z,100.00
2019-05-18T02:30:33.334Z,100.00
2019-05-18T02:35:37.363Z,100.00
2019-05-18T02:40:41.544Z,100.00
2019-05-18T02:45:45.963Z,100.00
2019-05-18T02:50:50.143Z,100.00
2019-05-18T02:55:54.142Z,100.00
2019-05-18T03:00:58.196Z,100.00
2019-05-18T03:06:02.822Z,100.00
2019-05-18T03:11:07.285Z,100.00
2019-05-18T03:16:11.360Z,100.00
2019-05-18T03:21:15.601Z,100.00
2019-05-18T03:26:19.625Z,100.00
2019-05-18T03:31:23.709Z,100.00
2019-05-18T03:36:27.696Z,100.00
2019-05-18T03:41:32.012Z,100.00
2019-05-18T03:46:36.140Z,100.00
2019-05-18T03:51:40.163Z,100.00
2019-05-18T03:56:44.677Z,100.00
2019-05-18T04:01:49.152Z,100.00
2019-05-18T04:06:53.215Z,100.00
2019-05-18T04:11:57.333Z,100.00
2019-05-18T04:17:01.329Z,100.00
2019-05-18T04:22:05.671Z,100.00
2019-05-18T04:27:09.743Z,100.00
2019-05-18T04:32:13.771Z,100.00
2019-05-18T04:37:17.778Z,100.00
2019-05-18T04:42:21.770Z,64.68
2019-05-18T04:47:25.838Z,54.19
2019-05-18T04:52:30.261Z,47.45
2019-05-18T04:57:34.340Z,44.06
2019-05-18T05:02:38.709Z,43.63
2019-05-18T05:07:42.772Z,41.68
2019-05-18T05:12:47.157Z,38.80
2019-05-18T05:17:51.356Z,39.47
2019-05-18T05:22:55.365Z,35.77
2019-05-18T05:27:59.729Z,36.50
2019-05-18T05:33:04.384Z,35.90
2019-05-18T05:38:08.700Z,34.31
2019-05-18T05:43:12.768Z,34.92
2019-05-18T05:48:16.830Z,34.34
2019-05-18T05:53:22.000Z,34.86
2019-05-18T05:58:26.303Z,34.94
2019-05-18T06:03:30.376Z,34.74
2019-05-18T06:08:34.439Z,32.71
2019-05-18T06:13:38.633Z,29.01
2019-05-18T06:18:43.302Z,31.18
2019-05-18T06:23:47.359Z,27.70
2019-05-18T06:28:51.406Z,28.63
2019-05-18T06:33:55.414Z,28.31
2019-05-18T06:38:59.437Z,30.04
2019-05-18T06:44:03.509Z,30.25
2019-05-18T06:49:07.572Z,27.28
2019-05-18T06:54:11.921Z,28.01
2019-05-18T06:59:16.933Z,27.60
2019-05-18T07:04:21.307Z,27.13
2019-05-18T07:09:25.261Z,26.90
2019-05-18T07:14:29.652Z,27.71
2019-05-18T07:19:33.754Z,26.40
2019-05-18T07:24:37.780Z,28.93
2019-05-18T07:29:41.798Z,28.86
2019-05-18T07:34:45.822Z,29.30
2019-05-18T07:39:49.969Z,27.74
2019-05-18T07:44:54.112Z,29.06
2019-05-18T07:49:58.113Z,28.99
2019-05-18T07:55:03.055Z,26.90
2019-05-18T08:00:07.626Z,30.93
2019-05-18T08:05:11.622Z,29.28
2019-05-18T08:10:18.637Z,30.45
2019-05-18T08:15:23.978Z,29.65
2019-05-18T08:20:28.471Z,29.80
2019-05-18T08:25:32.528Z,31.10
2019-05-18T08:30:36.555Z,31.62
2019-05-18T08:35:40.562Z,34.44
2019-05-18T08:40:44.614Z,34.56
2019-05-18T08:45:48.619Z,32.97
2019-05-18T08:50:53.753Z,31.33
2019-05-18T08:55:57.781Z,31.47
2019-05-18T09:01:01.861Z,33.56
2019-05-18T09:06:05.924Z,31.20
2019-05-18T09:11:09.974Z,31.88
2019-05-18T09:16:14.153Z,32.97
2019-05-18T09:21:18.221Z,33.61
2019-05-18T09:26:22.249Z,31.33
2019-05-18T09:31:27.038Z,29.81
2019-05-18T09:36:31.148Z,28.63
2019-05-18T09:41:35.311Z,27.33
2019-05-18T09:46:39.348Z,29.17
2019-05-18T09:51:43.632Z,29.14
2019-05-18T09:56:47.865Z,30.76
2019-05-18T10:01:51.973Z,28.94
2019-05-18T10:06:56.011Z,28.48
2019-05-18T10:12:00.410Z,27.33
2019-05-18T10:17:04.715Z,28.92
2019-05-18T10:22:08.821Z,30.88
2019-05-18T10:27:13.069Z,31.07
2019-05-18T10:32:17.082Z,31.75
2019-05-18T10:37:21.281Z,30.02
2019-05-18T10:42:25.346Z,31.07
2019-05-18T10:47:29.477Z,31.55
2019-05-18T10:52:33.550Z,31.11
2019-05-18T10:57:38.058Z,31.63
2019-05-18T11:02:42.622Z,32.90
2019-05-18T11:07:46.652Z,32.86
2019-05-18T11:12:50.822Z,31.93
2019-05-18T11:17:54.870Z,32.75
2019-05-18T11:22:58.895Z,32.58
2019-05-18T11:28:02.995Z,32.31
2019-05-18T11:33:07.032Z,32.67
2019-05-18T11:38:11.056Z,34.15
2019-05-18T11:43:15.300Z,34.14
2019-05-18T11:48:19.336Z,32.65
2019-05-18T11:53:23.360Z,31.73
2019-05-18T11:58:27.516Z,31.54
2019-05-18T12:03:31.851Z,30.17
2019-05-18T12:08:36.344Z,31.16
2019-05-18T12:13:40.545Z,31.10
2019-05-18T12:18:44.753Z,31.53
2019-05-18T12:23:48.784Z,31.75
2019-05-18T12:28:52.827Z,31.97
2019-05-18T12:33:56.877Z,31.86
2019-05-18T12:39:00.909Z,31.44
2019-05-18T12:44:04.926Z,30.34
2019-05-18T12:49:09.360Z,30.65
2019-05-18T12:54:13.392Z,31.00
2019-05-18T12:59:17.823Z,31.56
2019-05-18T13:04:21.848Z,29.62
2019-05-18T13:09:25.867Z,32.05
2019-05-18T13:14:29.981Z,30.53
2019-05-18T13:19:34.045Z,30.45
2019-05-18T13:24:45.222Z,31.41
2019-05-18T13:29:43.813Z,30.48
2019-05-18T13:34:47.939Z,30.22
2019-05-18T13:39:52.063Z,30.94
2019-05-18T13:44:56.398Z,30.87
2019-05-18T13:50:00.858Z,31.13
2019-05-18T13:55:05.384Z,29.54
2019-05-18T14:00:10.261Z,29.80
2019-05-18T14:05:14.650Z,32.31
2019-05-18T14:10:19.338Z,30.78
2019-05-18T14:15:23.569Z,30.40
2019-05-18T14:20:27.751Z,29.87
2019-05-18T14:25:32.053Z,30.51
2019-05-18T14:30:36.282Z,32.32
2019-05-18T14:35:41.227Z,30.92
2019-05-18T14:40:45.403Z,30.31
2019-05-18T14:45:49.756Z,30.06
2019-05-18T14:50:53.958Z,29.93
2019-05-18T14:55:57.992Z,30.17
2019-05-18T15:01:02.262Z,29.36
2019-05-18T15:06:06.944Z,29.94
2019-05-18T15:11:10.982Z,30.27
2019-05-18T15:16:15.057Z,30.01
2019-05-18T15:21:19.122Z,30.24
2019-05-18T15:26:23.100Z,30.89
2019-05-18T15:31:27.163Z,30.76
2019-05-18T15:36:31.749Z,29.54
2019-05-18T15:41:35.862Z,28.71
2019-05-18T15:46:39.929Z,29.74
2019-05-18T15:51:43.944Z,29.29
2019-05-18T15:56:48.036Z,29.67
2019-05-18T16:01:52.112Z,30.63
2019-05-18T16:06:56.165Z,29.70
2019-05-18T16:12:00.439Z,30.25
2019-05-18T16:17:04.467Z,30.23
2019-05-18T16:22:08.565Z,30.32
2019-05-18T16:27:12.895Z,29.74
2019-05-18T16:32:17.217Z,29.69
2019-05-18T16:37:21.278Z,29.47
2019-05-18T16:42:25.291Z,30.28
2019-05-18T16:47:29.311Z,30.46
2019-05-18T16:52:33.717Z,30.51
2019-05-18T16:57:37.802Z,30.44
2019-05-18T17:02:41.811Z,30.16
2019-05-18T17:07:46.250Z,30.14
2019-05-18T17:12:50.431Z,30.28
2019-05-18T17:17:54.478Z,31.21
2019-05-18T17:23:02.525Z,31.17
2019-05-18T17:28:07.137Z,30.84
2019-05-18T17:33:11.292Z,32.22
2019-05-18T17:38:15.333Z,32.66
2019-05-18T17:43:20.474Z,32.19
2019-05-18T17:48:24.860Z,32.42
2019-05-18T17:53:29.341Z,32.95
2019-05-18T17:58:33.494Z,33.86
2019-05-18T18:03:37.768Z,34.25
2019-05-18T18:08:42.249Z,34.41
2019-05-18T18:13:48.013Z,34.83
2019-05-18T18:18:52.285Z,36.16
2019-05-18T18:23:58.648Z,37.56
2019-05-18T18:29:04.385Z,37.75
2019-05-18T18:34:11.580Z,39.83
2019-05-18T18:39:16.143Z,40.99
2019-05-18T18:44:21.794Z,42.51
2019-05-18T18:49:27.032Z,44.35
2019-05-18T18:54:33.551Z,48.10
2019-05-18T18:59:40.127Z,50.46
2019-05-18T19:04:47.931Z,51.87
2019-05-18T19:09:53.643Z,53.93
2019-05-18T19:15:02.723Z,56.40
2019-05-18T19:20:09.531Z,58.92
2019-05-18T19:25:16.343Z,59.96
2019-05-18T19:30:24.487Z,62.36
2019-05-18T19:35:33.288Z,63.55
2019-05-18T19:40:38.440Z,63.84
2019-05-18T19:45:45.435Z,65.37
2019-05-18T19:50:54.838Z,66.58
2019-05-18T19:56:04.618Z,69.31
2019-05-18T20:01:15.312Z,70.27
2019-05-18T20:06:25.538Z,70.59
2019-05-18T20:11:35.536Z,71.85
2019-05-18T20:16:48.725Z,73.18
2019-05-18T20:21:59.638Z,74.72
2019-05-18T20:27:07.968Z,74.72
2019-05-18T20:32:18.554Z,76.02
2019-05-18T20:37:24.143Z,77.37
2019-05-18T20:42:28.176Z,80.11
2019-05-18T20:47:33.168Z,81.00
2019-05-18T20:52:37.209Z,82.10
2019-05-18T20:57:41.606Z,82.58
2019-05-18T21:02:45.701Z,83.80
2019-05-18T21:07:49.898Z,82.82
2019-05-18T21:12:54.018Z,82.78
2019-05-18T21:17:58.133Z,82.75
2019-05-18T21:23:02.373Z,84.54
2019-05-18T21:28:06.510Z,85.04
2019-05-18T21:33:13.552Z,85.32
2019-05-18T21:38:17.747Z,86.38
2019-05-18T21:43:24.236Z,85.90
2019-05-18T21:48:28.281Z,87.72
2019-05-18T21:53:37.176Z,87.41
2019-05-18T21:58:46.377Z,89.07
2019-05-18T22:03:57.246Z,89.23
2019-05-18T22:09:07.261Z,89.42
2019-05-18T22:14:18.767Z,91.67
2019-05-18T22:19:27.964Z,91.80
2019-05-18T22:24:37.266Z,93.41
2019-05-18T22:29:47.208Z,93.45
2019-05-18T22:34:56.365Z,93.70
2019-05-18T22:40:04.661Z,95.10
2019-05-18T22:45:14.332Z,95.88
2019-05-18T22:50:22.066Z,96.42
2019-05-18T22:55:29.718Z,98.57
2019-05-18T23:00:36.709Z,98.82
2019-05-18T23:05:44.050Z,100.00
2019-05-18T23:10:50.332Z,100.00
2019-05-18T23:15:56.816Z,100.00
2019-05-18T23:21:03.569Z,100.00
2019-05-18T23:26:11.569Z,100.00
2019-05-18T23:31:14.348Z,100.00
2019-05-18T23:36:18.482Z,100.00
2019-05-18T23:41:22.550Z,100.00
2019-05-18T23:46:26.579Z,100.00
2019-05-18T23:51:30.695Z,100.00
2019-05-18T23:56:34.897Z,100.00
